sensor_id;sensor_type;location;lat;lon;timestamp;pressure;altitude;pressure_sealevel;temperature;humidity
77027;BME280;65956;52.986;17.490;2023-09-30T00:01:56;100290.48;;;18.77;75.67
77027;BME280;65956;52.986;17.490;2023-09-30T00:04:25;100289.10;;;18.82;75.53
77027;BME280;65956;52.986;17.490;2023-09-30T00:06:51;100290.48;;;18.86;75.26
77027;BME280;65956;52.986;17.490;2023-09-30T00:09:18;100288.95;;;18.90;75.30
77027;BME280;65956;52.986;17.490;2023-09-30T00:11:44;100286.77;;;18.95;74.76
77027;BME280;65956;52.986;17.490;2023-09-30T00:14:11;100291.29;;;19.01;74.80
77027;BME280;65956;52.986;17.490;2023-09-30T00:16:38;100292.45;;;19.03;74.49
77027;BME280;65956;52.986;17.490;2023-09-30T00:19:04;100292.65;;;19.06;74.50
77027;BME280;65956;52.986;17.490;2023-09-30T00:21:31;100294.08;;;19.07;74.42
77027;BME280;65956;52.986;17.490;2023-09-30T00:23:58;100295.52;;;19.08;74.44
77027;BME280;65956;52.986;17.490;2023-09-30T00:26:24;100295.73;;;19.09;74.29
77027;BME280;65956;52.986;17.490;2023-09-30T00:28:52;100292.02;;;19.09;74.24
77027;BME280;65956;52.986;17.490;2023-09-30T00:31:18;100297.98;;;19.10;74.17
77027;BME280;65956;52.986;17.490;2023-09-30T00:33:45;100299.65;;;19.11;74.06
77027;BME280;65956;52.986;17.490;2023-09-30T00:36:11;100300.27;;;19.12;74.03
77027;BME280;65956;52.986;17.490;2023-09-30T00:38:39;100301.29;;;19.11;74.10
77027;BME280;65956;52.986;17.490;2023-09-30T00:41:10;100305.77;;;19.08;74.39
77027;BME280;65956;52.986;17.490;2023-09-30T00:43:37;100304.61;;;19.05;74.66
77027;BME280;65956;52.986;17.490;2023-09-30T00:48:39;100300.84;;;18.94;74.76
77027;BME280;65956;52.986;17.490;2023-09-30T00:51:05;100300.95;;;18.87;74.89
77027;BME280;65956;52.986;17.490;2023-09-30T00:53:32;100297.61;;;18.80;75.17
77027;BME280;65956;52.986;17.490;2023-09-30T00:56:00;100293.96;;;18.71;75.31
77027;BME280;65956;52.986;17.490;2023-09-30T00:58:27;100295.48;;;18.62;75.49
77027;BME280;65956;52.986;17.490;2023-09-30T01:00:56;100296.58;;;18.54;75.78
77027;BME280;65956;52.986;17.490;2023-09-30T01:03:23;100301.09;;;18.47;76.05
77027;BME280;65956;52.986;17.490;2023-09-30T01:05:50;100305.36;;;18.41;76.37
77027;BME280;65956;52.986;17.490;2023-09-30T01:08:17;100309.09;;;18.35;76.54
77027;BME280;65956;52.986;17.490;2023-09-30T01:10:45;100310.45;;;18.30;76.82
77027;BME280;65956;52.986;17.490;2023-09-30T01:13:11;100312.80;;;18.24;76.92
77027;BME280;65956;52.986;17.490;2023-09-30T01:15:38;100309.88;;;18.19;77.22
77027;BME280;65956;52.986;17.490;2023-09-30T01:18:05;100310.50;;;18.15;77.16
77027;BME280;65956;52.986;17.490;2023-09-30T01:20:32;100306.67;;;18.12;77.37
77027;BME280;65956;52.986;17.490;2023-09-30T01:22:59;100305.81;;;18.10;77.53
77027;BME280;65956;52.986;17.490;2023-09-30T01:25:25;100316.62;;;18.10;77.48
77027;BME280;65956;52.986;17.490;2023-09-30T01:27:52;100317.11;;;18.09;77.79
77027;BME280;65956;52.986;17.490;2023-09-30T01:30:20;100322.23;;;18.07;78.15
77027;BME280;65956;52.986;17.490;2023-09-30T01:32:48;100324.36;;;18.03;77.93
77027;BME280;65956;52.986;17.490;2023-09-30T01:35:15;100330.14;;;17.99;77.97
77027;BME280;65956;52.986;17.490;2023-09-30T01:37:42;100329.86;;;17.96;78.18
77027;BME280;65956;52.986;17.490;2023-09-30T01:40:10;100326.13;;;17.90;78.28
77027;BME280;65956;52.986;17.490;2023-09-30T01:42:37;100329.84;;;17.85;78.46
77027;BME280;65956;52.986;17.490;2023-09-30T01:45:05;100331.59;;;17.79;78.47
77027;BME280;65956;52.986;17.490;2023-09-30T01:47:34;100337.77;;;17.75;78.62
77027;BME280;65956;52.986;17.490;2023-09-30T01:50:01;100332.61;;;17.69;79.12
77027;BME280;65956;52.986;17.490;2023-09-30T01:52:28;100336.14;;;17.61;79.42
77027;BME280;65956;52.986;17.490;2023-09-30T01:54:55;100337.27;;;17.52;79.73
77027;BME280;65956;52.986;17.490;2023-09-30T01:57:21;100339.94;;;17.43;80.12
77027;BME280;65956;52.986;17.490;2023-09-30T01:59:48;100339.20;;;17.37;80.43
77027;BME280;65956;52.986;17.490;2023-09-30T02:02:16;100348.83;;;17.31;80.79
77027;BME280;65956;52.986;17.490;2023-09-30T02:04:43;100350.39;;;17.29;81.14
77027;BME280;65956;52.986;17.490;2023-09-30T02:07:10;100349.98;;;17.28;81.93
77027;BME280;65956;52.986;17.490;2023-09-30T02:09:37;100348.04;;;17.30;81.97
77027;BME280;65956;52.986;17.490;2023-09-30T02:12:03;100347.83;;;17.35;82.68
77027;BME280;65956;52.986;17.490;2023-09-30T02:14:31;100349.38;;;17.40;82.50
77027;BME280;65956;52.986;17.490;2023-09-30T02:16:58;100347.75;;;17.43;82.89
77027;BME280;65956;52.986;17.490;2023-09-30T02:19:25;100353.02;;;17.46;83.83
77027;BME280;65956;52.986;17.490;2023-09-30T02:21:57;100354.11;;;17.50;84.26
77027;BME280;65956;52.986;17.490;2023-09-30T02:24:25;100350.36;;;17.53;84.73
77027;BME280;65956;52.986;17.490;2023-09-30T02:26:52;100353.48;;;17.56;84.68
77027;BME280;65956;52.986;17.490;2023-09-30T02:29:19;100354.05;;;17.57;84.75
77027;BME280;65956;52.986;17.490;2023-09-30T02:31:46;100361.61;;;17.58;85.23
77027;BME280;65956;52.986;17.490;2023-09-30T02:34:13;100367.89;;;17.58;85.66
77027;BME280;65956;52.986;17.490;2023-09-30T02:36:40;100369.98;;;17.57;85.46
77027;BME280;65956;52.986;17.490;2023-09-30T02:39:08;100369.44;;;17.55;86.33
77027;BME280;65956;52.986;17.490;2023-09-30T02:41:35;100372.85;;;17.52;86.20
77027;BME280;65956;52.986;17.490;2023-09-30T02:44:04;100375.61;;;17.50;86.40
77027;BME280;65956;52.986;17.490;2023-09-30T02:46:30;100376.84;;;17.48;86.46
77027;BME280;65956;52.986;17.490;2023-09-30T02:48:58;100385.14;;;17.46;87.33
77027;BME280;65956;52.986;17.490;2023-09-30T02:51:24;100386.59;;;17.45;87.16
77027;BME280;65956;52.986;17.490;2023-09-30T02:53:51;100394.44;;;17.43;87.18
77027;BME280;65956;52.986;17.490;2023-09-30T02:56:19;100392.70;;;17.40;88.21
77027;BME280;65956;52.986;17.490;2023-09-30T02:58:46;100403.43;;;17.36;88.23
77027;BME280;65956;52.986;17.490;2023-09-30T03:01:14;100399.45;;;17.32;88.28
77027;BME280;65956;52.986;17.490;2023-09-30T03:03:43;100403.77;;;17.26;89.41
77027;BME280;65956;52.986;17.490;2023-09-30T03:06:11;100405.54;;;17.25;89.48
77027;BME280;65956;52.986;17.490;2023-09-30T03:08:37;100409.23;;;17.25;89.27
77027;BME280;65956;52.986;17.490;2023-09-30T03:11:04;100412.70;;;17.25;90.07
77027;BME280;65956;52.986;17.490;2023-09-30T03:13:32;100413.19;;;17.24;89.90
77027;BME280;65956;52.986;17.490;2023-09-30T03:15:58;100419.06;;;17.25;90.38
77027;BME280;65956;52.986;17.490;2023-09-30T03:18:25;100420.27;;;17.25;90.71
77027;BME280;65956;52.986;17.490;2023-09-30T03:20:59;100419.13;;;17.27;91.01
77027;BME280;65956;52.986;17.490;2023-09-30T03:23:34;100421.84;;;17.29;91.29
77027;BME280;65956;52.986;17.490;2023-09-30T03:26:01;100425.23;;;17.30;91.34
77027;BME280;65956;52.986;17.490;2023-09-30T03:28:28;100433.65;;;17.32;91.47
77027;BME280;65956;52.986;17.490;2023-09-30T03:30:55;100433.88;;;17.33;91.35
77027;BME280;65956;52.986;17.490;2023-09-30T03:33:23;100433.88;;;17.34;90.75
77027;BME280;65956;52.986;17.490;2023-09-30T03:35:49;100439.27;;;17.32;91.10
77027;BME280;65956;52.986;17.490;2023-09-30T03:38:16;100446.69;;;17.31;90.86
77027;BME280;65956;52.986;17.490;2023-09-30T03:40:44;100456.77;;;17.30;90.65
77027;BME280;65956;52.986;17.490;2023-09-30T03:43:14;100454.79;;;17.27;90.31
77027;BME280;65956;52.986;17.490;2023-09-30T03:45:41;100460.18;;;17.25;89.78
77027;BME280;65956;52.986;17.490;2023-09-30T03:48:07;100464.87;;;17.22;89.77
77027;BME280;65956;52.986;17.490;2023-09-30T03:50:36;100473.19;;;17.17;89.92
77027;BME280;65956;52.986;17.490;2023-09-30T03:53:05;100479.17;;;17.13;89.63
77027;BME280;65956;52.986;17.490;2023-09-30T03:55:33;100488.13;;;17.10;89.39
77027;BME280;65956;52.986;17.490;2023-09-30T03:58:00;100486.88;;;17.05;89.22
77027;BME280;65956;52.986;17.490;2023-09-30T04:00:27;100493.00;;;17.02;88.92
77027;BME280;65956;52.986;17.490;2023-09-30T04:02:55;100498.50;;;16.99;88.79
77027;BME280;65956;52.986;17.490;2023-09-30T04:05:25;100506.10;;;16.94;88.59
77027;BME280;65956;52.986;17.490;2023-09-30T04:07:53;100504.02;;;16.90;88.37
77027;BME280;65956;52.986;17.490;2023-09-30T04:10:19;100513.38;;;16.85;88.51
77027;BME280;65956;52.986;17.490;2023-09-30T04:12:46;100516.94;;;16.79;88.61
77027;BME280;65956;52.986;17.490;2023-09-30T04:15:13;100517.70;;;16.71;89.14
77027;BME280;65956;52.986;17.490;2023-09-30T04:17:40;100521.77;;;16.58;90.02
77027;BME280;65956;52.986;17.490;2023-09-30T04:20:08;100521.39;;;16.47;90.29
77027;BME280;65956;52.986;17.490;2023-09-30T04:22:37;100528.66;;;16.39;90.82
77027;BME280;65956;52.986;17.490;2023-09-30T04:25:04;100544.10;;;16.35;91.12
77027;BME280;65956;52.986;17.490;2023-09-30T04:27:35;100544.49;;;16.33;91.37
77027;BME280;65956;52.986;17.490;2023-09-30T04:30:03;100555.19;;;16.32;90.95
77027;BME280;65956;52.986;17.490;2023-09-30T04:32:38;100559.61;;;16.30;89.48
77027;BME280;65956;52.986;17.490;2023-09-30T04:35:05;100567.73;;;16.28;88.64
77027;BME280;65956;52.986;17.490;2023-09-30T04:37:32;100570.23;;;16.26;88.34
77027;BME280;65956;52.986;17.490;2023-09-30T04:39:59;100575.77;;;16.24;88.09
77027;BME280;65956;52.986;17.490;2023-09-30T04:42:26;100580.69;;;16.22;88.09
77027;BME280;65956;52.986;17.490;2023-09-30T04:44:53;100588.16;;;16.21;88.07
77027;BME280;65956;52.986;17.490;2023-09-30T04:47:22;100590.73;;;16.19;88.15
77027;BME280;65956;52.986;17.490;2023-09-30T04:49:50;100600.36;;;16.16;88.29
77027;BME280;65956;52.986;17.490;2023-09-30T04:52:17;100603.42;;;16.13;88.31
77027;BME280;65956;52.986;17.490;2023-09-30T04:54:44;100604.33;;;16.09;87.64
77027;BME280;65956;52.986;17.490;2023-09-30T04:57:11;100611.63;;;16.06;86.96
77027;BME280;65956;52.986;17.490;2023-09-30T04:59:38;100610.17;;;16.03;86.82
77027;BME280;65956;52.986;17.490;2023-09-30T05:02:05;100618.92;;;16.01;86.43
77027;BME280;65956;52.986;17.490;2023-09-30T05:04:32;100626.56;;;16.00;86.03
77027;BME280;65956;52.986;17.490;2023-09-30T05:06:58;100624.88;;;15.99;85.43
77027;BME280;65956;52.986;17.490;2023-09-30T05:09:25;100631.63;;;15.97;85.17
77027;BME280;65956;52.986;17.490;2023-09-30T05:11:52;100639.34;;;15.96;85.03
77027;BME280;65956;52.986;17.490;2023-09-30T05:14:19;100640.77;;;15.94;84.77
77027;BME280;65956;52.986;17.490;2023-09-30T05:16:47;100645.92;;;15.91;83.96
77027;BME280;65956;52.986;17.490;2023-09-30T05:19:14;100648.16;;;15.90;83.48
77027;BME280;65956;52.986;17.490;2023-09-30T05:21:41;100657.39;;;15.88;83.23
77027;BME280;65956;52.986;17.490;2023-09-30T05:24:08;100657.48;;;15.87;83.13
77027;BME280;65956;52.986;17.490;2023-09-30T05:26:35;100662.20;;;15.83;81.71
77027;BME280;65956;52.986;17.490;2023-09-30T05:29:02;100661.80;;;15.81;80.08
77027;BME280;65956;52.986;17.490;2023-09-30T05:31:29;100664.60;;;15.78;79.78
77027;BME280;65956;52.986;17.490;2023-09-30T05:33:55;100670.55;;;15.77;80.01
77027;BME280;65956;52.986;17.490;2023-09-30T05:36:22;100677.05;;;15.75;80.06
77027;BME280;65956;52.986;17.490;2023-09-30T05:38:49;100679.95;;;15.73;80.64
77027;BME280;65956;52.986;17.490;2023-09-30T05:41:15;100687.15;;;15.72;80.94
77027;BME280;65956;52.986;17.490;2023-09-30T05:43:42;100690.54;;;15.70;81.32
77027;BME280;65956;52.986;17.490;2023-09-30T05:46:10;100691.82;;;15.69;81.64
77027;BME280;65956;52.986;17.490;2023-09-30T05:48:36;100701.27;;;15.68;81.92
77027;BME280;65956;52.986;17.490;2023-09-30T05:51:05;100700.71;;;15.65;82.24
77027;BME280;65956;52.986;17.490;2023-09-30T05:53:33;100700.14;;;15.60;81.61
77027;BME280;65956;52.986;17.490;2023-09-30T05:56:00;100716.25;;;15.56;80.82
77027;BME280;65956;52.986;17.490;2023-09-30T05:58:26;100719.77;;;15.52;79.77
77027;BME280;65956;52.986;17.490;2023-09-30T06:00:53;100726.38;;;15.47;78.36
77027;BME280;65956;52.986;17.490;2023-09-30T06:03:19;100725.25;;;15.44;77.78
77027;BME280;65956;52.986;17.490;2023-09-30T06:05:49;100738.64;;;15.41;77.00
77027;BME280;65956;52.986;17.490;2023-09-30T06:45:58;100783.87;;;14.94;76.01
77027;BME280;65956;52.986;17.490;2023-09-30T06:48:25;100785.58;;;14.99;75.94
77027;BME280;65956;52.986;17.490;2023-09-30T06:50:52;100784.17;;;15.06;76.24
77027;BME280;65956;52.986;17.490;2023-09-30T06:53:19;100788.64;;;15.13;75.63
77027;BME280;65956;52.986;17.490;2023-09-30T06:55:47;100793.16;;;15.18;75.14
77027;BME280;65956;52.986;17.490;2023-09-30T06:58:14;100796.38;;;15.21;74.65
77027;BME280;65956;52.986;17.490;2023-09-30T07:00:41;100798.32;;;15.23;74.54
77027;BME280;65956;52.986;17.490;2023-09-30T07:03:08;100800.10;;;15.25;74.52
77027;BME280;65956;52.986;17.490;2023-09-30T07:05:36;100799.79;;;15.28;74.78
77027;BME280;65956;52.986;17.490;2023-09-30T07:08:03;100795.96;;;15.33;74.79
77027;BME280;65956;52.986;17.490;2023-09-30T07:10:29;100804.58;;;15.38;75.15
77027;BME280;65956;52.986;17.490;2023-09-30T07:12:56;100808.92;;;15.40;74.21
77027;BME280;65956;52.986;17.490;2023-09-30T07:15:23;100811.02;;;15.41;74.86
77027;BME280;65956;52.986;17.490;2023-09-30T07:17:50;100815.52;;;15.46;74.60
77027;BME280;65956;52.986;17.490;2023-09-30T07:20:17;100811.77;;;15.48;74.66
77027;BME280;65956;52.986;17.490;2023-09-30T07:22:44;100817.34;;;15.50;74.11
77027;BME280;65956;52.986;17.490;2023-09-30T07:25:11;100817.52;;;15.54;73.97
77027;BME280;65956;52.986;17.490;2023-09-30T07:27:37;100824.21;;;15.59;73.61
77027;BME280;65956;52.986;17.490;2023-09-30T07:30:05;100820.30;;;15.62;73.27
77027;BME280;65956;52.986;17.490;2023-09-30T07:32:33;100822.50;;;15.71;73.68
77027;BME280;65956;52.986;17.490;2023-09-30T07:35:00;100819.34;;;15.82;73.53
77027;BME280;65956;52.986;17.490;2023-09-30T07:37:27;100822.36;;;15.92;73.37
77027;BME280;65956;52.986;17.490;2023-09-30T07:39:53;100823.84;;;16.04;72.91
77027;BME280;65956;52.986;17.490;2023-09-30T07:42:20;100828.59;;;16.09;72.18
77027;BME280;65956;52.986;17.490;2023-09-30T07:44:48;100834.16;;;16.18;71.98
77027;BME280;65956;52.986;17.490;2023-09-30T07:47:15;100832.88;;;16.22;71.05
77027;BME280;65956;52.986;17.490;2023-09-30T07:49:42;100830.96;;;16.26;71.63
77027;BME280;65956;52.986;17.490;2023-09-30T07:52:09;100830.34;;;16.34;71.78
77027;BME280;65956;52.986;17.490;2023-09-30T07:54:37;100839.82;;;16.35;70.78
77027;BME280;65956;52.986;17.490;2023-09-30T07:57:04;100839.89;;;16.28;70.34
77027;BME280;65956;52.986;17.490;2023-09-30T07:59:31;100843.11;;;16.35;70.03
77027;BME280;65956;52.986;17.490;2023-09-30T08:02:01;100853.19;;;16.52;70.40
77027;BME280;65956;52.986;17.490;2023-09-30T08:04:27;100861.11;;;16.62;70.13
77027;BME280;65956;52.986;17.490;2023-09-30T08:06:56;100866.19;;;16.63;69.53
77027;BME280;65956;52.986;17.490;2023-09-30T08:09:22;100866.87;;;16.55;69.24
77027;BME280;65956;52.986;17.490;2023-09-30T08:11:53;100878.68;;;16.49;69.16
77027;BME280;65956;52.986;17.490;2023-09-30T08:14:20;100873.58;;;16.65;68.72
77027;BME280;65956;52.986;17.490;2023-09-30T08:16:46;100872.62;;;16.69;68.05
77027;BME280;65956;52.986;17.490;2023-09-30T08:19:15;100875.52;;;16.64;68.79
77027;BME280;65956;52.986;17.490;2023-09-30T08:21:42;100874.55;;;16.70;69.45
77027;BME280;65956;52.986;17.490;2023-09-30T08:24:09;100876.73;;;16.78;68.82
77027;BME280;65956;52.986;17.490;2023-09-30T08:26:35;100888.30;;;16.77;68.73
77027;BME280;65956;52.986;17.490;2023-09-30T08:29:02;100893.70;;;16.74;67.81
77027;BME280;65956;52.986;17.490;2023-09-30T08:31:29;100895.88;;;16.76;67.79
77027;BME280;65956;52.986;17.490;2023-09-30T08:33:56;100899.65;;;16.80;67.45
77027;BME280;65956;52.986;17.490;2023-09-30T08:36:23;100891.53;;;16.79;67.05
77027;BME280;65956;52.986;17.490;2023-09-30T08:38:51;100889.77;;;16.81;66.54
77027;BME280;65956;52.986;17.490;2023-09-30T08:41:31;100898.79;;;16.93;66.29
77027;BME280;65956;52.986;17.490;2023-09-30T08:44:03;100899.34;;;16.98;65.88
77027;BME280;65956;52.986;17.490;2023-09-30T08:46:32;100901.44;;;17.07;66.17
77027;BME280;65956;52.986;17.490;2023-09-30T08:49:04;100907.88;;;17.13;65.34
77027;BME280;65956;52.986;17.490;2023-09-30T08:51:31;100912.31;;;17.21;65.54
77027;BME280;65956;52.986;17.490;2023-09-30T08:54:00;100913.27;;;17.19;65.81
77027;BME280;65956;52.986;17.490;2023-09-30T08:56:29;100918.18;;;17.11;66.04
77027;BME280;65956;52.986;17.490;2023-09-30T08:59:00;100920.34;;;16.98;66.94
77027;BME280;65956;52.986;17.490;2023-09-30T09:01:28;100915.35;;;16.99;66.67
77027;BME280;65956;52.986;17.490;2023-09-30T09:03:56;100920.42;;;17.00;66.69
77027;BME280;65956;52.986;17.490;2023-09-30T09:06:25;100932.42;;;17.11;65.22
77027;BME280;65956;52.986;17.490;2023-09-30T09:08:52;100926.13;;;17.28;64.79
77027;BME280;65956;52.986;17.490;2023-09-30T09:11:19;100928.86;;;17.46;64.75
77027;BME280;65956;52.986;17.490;2023-09-30T09:13:55;100932.02;;;17.62;64.70
77027;BME280;65956;52.986;17.490;2023-09-30T09:16:26;100933.21;;;17.58;63.32
77027;BME280;65956;52.986;17.490;2023-09-30T09:18:53;100941.67;;;17.36;63.11
77027;BME280;65956;52.986;17.490;2023-09-30T09:21:21;100939.90;;;17.39;63.40
77027;BME280;65956;52.986;17.490;2023-09-30T09:23:53;100933.69;;;17.47;62.90
77027;BME280;65956;52.986;17.490;2023-09-30T09:26:31;100943.67;;;17.44;63.60
77027;BME280;65956;52.986;17.490;2023-09-30T09:29:04;100948.59;;;17.19;61.89
77027;BME280;65956;52.986;17.490;2023-09-30T09:31:35;100951.73;;;17.07;62.93
77027;BME280;65956;52.986;17.490;2023-09-30T09:34:04;100952.05;;;17.18;63.52
77027;BME280;65956;52.986;17.490;2023-09-30T09:39:06;100952.38;;;17.60;61.73
77027;BME280;65956;52.986;17.490;2023-09-30T09:41:51;100953.02;;;17.65;60.65
77027;BME280;65956;52.986;17.490;2023-09-30T09:44:23;100949.56;;;17.59;60.54
77027;BME280;65956;52.986;17.490;2023-09-30T09:46:50;100945.62;;;17.61;59.82
77027;BME280;65956;52.986;17.490;2023-09-30T09:49:18;100941.08;;;17.77;59.78
77027;BME280;65956;52.986;17.490;2023-09-30T09:51:46;100936.27;;;17.99;59.16
77027;BME280;65956;52.986;17.490;2023-09-30T09:54:14;100948.71;;;18.14;58.42
77027;BME280;65956;52.986;17.490;2023-09-30T09:56:43;100945.20;;;18.04;58.13
77027;BME280;65956;52.986;17.490;2023-09-30T09:59:12;100949.80;;;18.06;58.21
77027;BME280;65956;52.986;17.490;2023-09-30T10:01:40;100953.81;;;18.08;58.44
77027;BME280;65956;52.986;17.490;2023-09-30T10:04:10;100958.65;;;18.05;58.01
77027;BME280;65956;52.986;17.490;2023-09-30T10:06:37;100962.29;;;18.25;58.59
77027;BME280;65956;52.986;17.490;2023-09-30T10:09:09;100970.34;;;18.47;56.56
77027;BME280;65956;52.986;17.490;2023-09-30T10:11:38;100969.24;;;18.64;55.36
77027;BME280;65956;52.986;17.490;2023-09-30T10:14:06;100972.27;;;18.70;55.32
77027;BME280;65956;52.986;17.490;2023-09-30T10:19:21;100970.14;;;18.38;55.95
77027;BME280;65956;52.986;17.490;2023-09-30T10:24:53;100970.98;;;18.69;55.97
77027;BME280;65956;52.986;17.490;2023-09-30T10:40:49;100976.92;;;18.75;53.92
77027;BME280;65956;52.986;17.490;2023-09-30T10:43:30;100977.41;;;18.87;53.57
77027;BME280;65956;52.986;17.490;2023-09-30T10:46:00;100983.85;;;18.92;52.83
77027;BME280;65956;52.986;17.490;2023-09-30T10:51:16;100981.39;;;18.69;51.63
77027;BME280;65956;52.986;17.490;2023-09-30T10:56:14;100980.50;;;18.46;53.12
77027;BME280;65956;52.986;17.490;2023-09-30T10:58:52;100981.30;;;18.54;53.50
77027;BME280;65956;52.986;17.490;2023-09-30T11:01:20;100980.36;;;18.66;53.71
77027;BME280;65956;52.986;17.490;2023-09-30T11:03:49;100980.70;;;18.78;53.91
77027;BME280;65956;52.986;17.490;2023-09-30T11:06:20;100978.24;;;18.83;53.05
77027;BME280;65956;52.986;17.490;2023-09-30T11:08:52;100991.50;;;18.79;53.36
77027;BME280;65956;52.986;17.490;2023-09-30T11:11:39;100994.52;;;18.74;53.29
77027;BME280;65956;52.986;17.490;2023-09-30T11:14:25;100988.71;;;18.73;53.70
77027;BME280;65956;52.986;17.490;2023-09-30T11:16:54;100996.41;;;18.67;54.03
77027;BME280;65956;52.986;17.490;2023-09-30T11:19:21;100998.30;;;18.61;53.20
77027;BME280;65956;52.986;17.490;2023-09-30T11:21:50;100996.34;;;18.63;53.31
77027;BME280;65956;52.986;17.490;2023-09-30T11:24:17;100997.27;;;18.69;53.49
77027;BME280;65956;52.986;17.490;2023-09-30T11:26:45;100995.27;;;18.83;53.65
77027;BME280;65956;52.986;17.490;2023-09-30T11:29:14;100995.41;;;18.90;53.17
77027;BME280;65956;52.986;17.490;2023-09-30T11:31:47;100989.27;;;18.89;53.00
77027;BME280;65956;52.986;17.490;2023-09-30T11:34:19;100985.59;;;18.84;52.94
77027;BME280;65956;52.986;17.490;2023-09-30T11:37:00;100987.79;;;18.80;53.34
77027;BME280;65956;52.986;17.490;2023-09-30T11:39:28;100989.10;;;18.76;53.49
77027;BME280;65956;52.986;17.490;2023-09-30T11:41:56;100984.34;;;18.75;53.54
77027;BME280;65956;52.986;17.490;2023-09-30T11:44:27;100983.70;;;18.73;53.92
77027;BME280;65956;52.986;17.490;2023-09-30T11:46:57;100982.73;;;18.75;53.75
77027;BME280;65956;52.986;17.490;2023-09-30T11:49:35;100979.11;;;18.75;53.61
77027;BME280;65956;52.986;17.490;2023-09-30T11:52:11;100981.84;;;18.75;53.06
77027;BME280;65956;52.986;17.490;2023-09-30T11:54:43;100980.30;;;18.77;53.16
77027;BME280;65956;52.986;17.490;2023-09-30T11:57:15;100983.75;;;18.92;52.98
77027;BME280;65956;52.986;17.490;2023-09-30T11:59:43;100988.39;;;19.12;52.07
77027;BME280;65956;52.986;17.490;2023-09-30T12:02:12;100976.54;;;19.31;52.25
77027;BME280;65956;52.986;17.490;2023-09-30T12:04:39;100976.15;;;19.42;51.91
77027;BME280;65956;52.986;17.490;2023-09-30T12:07:05;100972.70;;;19.48;51.92
77027;BME280;65956;52.986;17.490;2023-09-30T12:09:35;100976.36;;;19.65;51.98
77027;BME280;65956;52.986;17.490;2023-09-30T12:12:04;100977.08;;;19.90;51.06
77027;BME280;65956;52.986;17.490;2023-09-30T12:14:31;100981.20;;;20.04;50.06
77027;BME280;65956;52.986;17.490;2023-09-30T12:16:58;100981.70;;;20.11;50.15
77027;BME280;65956;52.986;17.490;2023-09-30T12:19:25;100993.65;;;20.67;48.90
77027;BME280;65956;52.986;17.490;2023-09-30T12:21:56;100989.39;;;21.66;46.85
77027;BME280;65956;52.986;17.490;2023-09-30T12:24:23;100991.29;;;21.97;45.89
77027;BME280;65956;52.986;17.490;2023-09-30T12:26:51;100993.84;;;22.49;44.46
77027;BME280;65956;52.986;17.490;2023-09-30T12:29:20;100992.88;;;22.98;43.35
77027;BME280;65956;52.986;17.490;2023-09-30T12:31:50;100993.69;;;22.11;44.71
77027;BME280;65956;52.986;17.490;2023-09-30T12:34:17;100993.27;;;21.18;46.11
77027;BME280;65956;52.986;17.490;2023-09-30T12:36:44;100992.88;;;20.64;47.43
77027;BME280;65956;52.986;17.490;2023-09-30T12:39:11;100992.20;;;20.19;48.16
77027;BME280;65956;52.986;17.490;2023-09-30T12:41:40;100988.85;;;20.08;49.12
77027;BME280;65956;52.986;17.490;2023-09-30T12:44:09;100986.70;;;20.12;49.11
77027;BME280;65956;52.986;17.490;2023-09-30T12:46:37;100982.63;;;21.78;46.41
77027;BME280;65956;52.986;17.490;2023-09-30T12:49:06;100980.01;;;23.43;42.40
77027;BME280;65956;52.986;17.490;2023-09-30T12:51:34;100987.79;;;23.38;42.01
77027;BME280;65956;52.986;17.490;2023-09-30T12:54:01;100983.51;;;24.54;39.62
77027;BME280;65956;52.986;17.490;2023-09-30T12:56:28;100986.19;;;24.85;38.22
77027;BME280;65956;52.986;17.490;2023-09-30T12:58:58;100991.25;;;25.22;37.68
77027;BME280;65956;52.986;17.490;2023-09-30T13:01:25;100988.54;;;24.68;38.93
77027;BME280;65956;52.986;17.490;2023-09-30T13:03:52;100991.09;;;23.31;41.00
77027;BME280;65956;52.986;17.490;2023-09-30T13:06:19;100991.22;;;22.04;43.39
77027;BME280;65956;52.986;17.490;2023-09-30T13:08:46;100991.95;;;21.19;45.01
77027;BME280;65956;52.986;17.490;2023-09-30T13:11:14;100989.23;;;20.83;46.01
77027;BME280;65956;52.986;17.490;2023-09-30T13:13:40;100980.29;;;20.37;47.51
77027;BME280;65956;52.986;17.490;2023-09-30T13:16:10;100986.41;;;20.31;47.61
77027;BME280;65956;52.986;17.490;2023-09-30T13:18:37;100979.52;;;21.25;45.83
77027;BME280;65956;52.986;17.490;2023-09-30T13:21:04;100980.41;;;22.27;44.05
77027;BME280;65956;52.986;17.490;2023-09-30T13:23:32;100989.23;;;22.76;42.70
77027;BME280;65956;52.986;17.490;2023-09-30T13:26:00;100980.09;;;22.82;42.65
77027;BME280;65956;52.986;17.490;2023-09-30T13:28:27;100990.71;;;22.79;42.17
77027;BME280;65956;52.986;17.490;2023-09-30T13:30:56;100990.34;;;22.91;41.53
77027;BME280;65956;52.986;17.490;2023-09-30T13:33:23;100986.17;;;23.24;41.22
77027;BME280;65956;52.986;17.490;2023-09-30T13:35:50;100989.15;;;23.32;41.40
77027;BME280;65956;52.986;17.490;2023-09-30T13:38:17;100986.72;;;23.31;41.16
77027;BME280;65956;52.986;17.490;2023-09-30T13:40:44;100989.61;;;23.53;41.15
77027;BME280;65956;52.986;17.490;2023-09-30T13:43:12;100983.24;;;24.15;40.53
77027;BME280;65956;52.986;17.490;2023-09-30T13:45:39;100982.45;;;24.71;38.95
77027;BME280;65956;52.986;17.490;2023-09-30T13:48:06;100973.96;;;24.74;37.52
77027;BME280;65956;52.986;17.490;2023-09-30T13:50:33;100974.52;;;24.69;37.14
77027;BME280;65956;52.986;17.490;2023-09-30T13:53:00;100981.88;;;24.63;37.18